Time;durP1;ratioP1;P1;durP2;ratioP2;P2;SDS_P1;SDS_P2;PMS_P1;PMS_P2;Temp;Humidity;BMP_temperature;BMP_pressure;BME280_temperature;BME280_humidity;BME280_pressure;Samples;Min_cycle;Max_cycle;Signal;HPM_P1;HPM_P2
2022/01/31 00:01:58;;;;;;;25.10;3.35;;;;;;;;;;4959929;28;20038;-66
2022/01/31 00:04:26;;;;;;;19.00;3.85;;;;;;;;;;4960107;28;20026;-67
2022/01/31 00:06:56;;;;;;;30.40;4.63;;;;;;;;;;4951969;28;20073;-67
2022/01/31 00:09:25;;;;;;;17.60;4.20;;;;;;;;;;4962657;28;20058;-66
2022/01/31 00:12:05;;;;;;;15.38;4.25;;;;;;;;;;4961963;28;20054;-65
2022/01/31 00:14:35;;;;;;;16.38;3.92;;;;;;;;;;4946557;28;20558;-66
2022/01/31 00:17:04;;;;;;;25.60;4.95;;;;;;;;;;4947337;28;20609;-66
2022/01/31 00:19:31;;;;;;;16.70;3.88;;;;;;;;;;4956376;28;20041;-66
2022/01/31 00:22:03;;;;;;;10.38;4.95;;;;;;;;;;4964882;28;20057;-65
2022/01/31 00:24:28;;;;;;;12.57;3.95;;;;;;;;;;4952210;28;20038;-66
2022/01/31 00:26:56;;;;;;;21.15;4.07;;;;;;;;;;4972348;28;20038;-66
2022/01/31 00:29:22;;;;;;;14.15;3.53;;;;;;;;;;4956669;28;20027;-68
2022/01/31 00:31:47;;;;;;;19.80;4.50;;;;;;;;;;4957314;28;20030;-67
2022/01/31 00:34:15;;;;;;;11.68;3.40;;;;;;;;;;4958964;28;20065;-66
2022/01/31 00:36:40;;;;;;;14.45;3.63;;;;;;;;;;4964546;28;20413;-67
2022/01/31 00:39:06;;;;;;;19.05;4.68;;;;;;;;;;4932000;28;20194;-67
2022/01/31 00:41:31;;;;;;;24.05;4.60;;;;;;;;;;4974450;28;20185;-67
2022/01/31 00:44:15;;;;;;;22.95;4.63;;;;;;;;;;4964693;28;20042;-65
2022/01/31 00:46:45;;;;;;;11.90;4.00;;;;;;;;;;4959921;28;20033;-66
2022/01/31 00:49:22;;;;;;;12.88;3.90;;;;;;;;;;4975927;28;20129;-67
2022/01/31 00:51:48;;;;;;;23.15;4.80;;;;;;;;;;4979171;28;20048;-67
2022/01/31 00:54:15;;;;;;;33.03;4.57;;;;;;;;;;4964942;28;20038;-68
2022/01/31 00:56:44;;;;;;;19.35;4.28;;;;;;;;;;4995161;28;20027;-66
2022/01/31 00:59:09;;;;;;;31.40;5.65;;;;;;;;;;4983209;28;20501;-67
2022/01/31 01:01:36;;;;;;;20.70;4.85;;;;;;;;;;4970941;28;21332;-66
2022/01/31 01:04:05;;;;;;;17.40;5.47;;;;;;;;;;4961792;28;20036;-65
2022/01/31 01:06:30;;;;;;;27.98;5.85;;;;;;;;;;4989478;28;20552;-64
2022/01/31 01:08:57;;;;;;;24.02;5.60;;;;;;;;;;4967608;28;20038;-62
2022/01/31 01:11:30;;;;;;;14.55;4.55;;;;;;;;;;4979747;28;20960;-65
2022/01/31 01:13:58;;;;;;;21.20;6.00;;;;;;;;;;4979688;28;20030;-64
2022/01/31 01:16:29;;;;;;;17.27;5.00;;;;;;;;;;4983799;28;20038;-64
2022/01/31 01:18:55;;;;;;;21.85;5.65;;;;;;;;;;4981438;28;21472;-65
2022/01/31 01:21:26;;;;;;;18.67;5.20;;;;;;;;;;4990860;28;20428;-63
2022/01/31 01:23:56;;;;;;;23.88;5.82;;;;;;;;;;4976021;28;20190;-64
2022/01/31 01:26:26;;;;;;;18.60;5.95;;;;;;;;;;4980188;28;20034;-63
2022/01/31 01:28:52;;;;;;;25.65;6.32;;;;;;;;;;4979287;28;20559;-64
2022/01/31 01:31:18;;;;;;;33.03;6.80;;;;;;;;;;4977201;28;20046;-65
2022/01/31 01:33:43;;;;;;;21.23;7.50;;;;;;;;;;4983883;28;20030;-63
2022/01/31 01:36:12;;;;;;;29.55;6.97;;;;;;;;;;4981547;28;20436;-63
2022/01/31 01:38:44;;;;;;;26.70;7.45;;;;;;;;;;4979954;28;20105;-64
2022/01/31 01:41:12;;;;;;;27.08;8.80;;;;;;;;;;4966262;28;20045;-64
2022/01/31 01:43:42;;;;;;;24.05;8.15;;;;;;;;;;4969184;28;20033;-62
2022/01/31 01:46:13;;;;;;;21.85;8.00;;;;;;;;;;4979211;28;20138;-64
2022/01/31 01:48:38;;;;;;;31.33;8.35;;;;;;;;;;4979541;28;20136;-62
2022/01/31 01:51:04;;;;;;;21.35;7.97;;;;;;;;;;4976459;28;20651;-62
2022/01/31 01:53:30;;;;;;;24.95;8.90;;;;;;;;;;4979613;28;20081;-63
2022/01/31 01:55:58;;;;;;;40.83;9.48;;;;;;;;;;4978025;28;20026;-61
2022/01/31 01:58:38;;;;;;;24.98;9.15;;;;;;;;;;4978979;28;20030;-61
2022/01/31 02:01:07;;;;;;;26.85;9.00;;;;;;;;;;4979271;28;20031;-61
2022/01/31 02:03:34;;;;;;;20.00;7.88;;;;;;;;;;4991006;28;20034;-60
2022/01/31 02:06:05;;;;;;;25.15;9.60;;;;;;;;;;4978772;28;20133;-60
2022/01/31 02:08:40;;;;;;;21.85;8.95;;;;;;;;;;4978197;28;20030;-61
2022/01/31 02:11:06;;;;;;;19.38;8.95;;;;;;;;;;4978611;28;20182;-60
2022/01/31 02:13:31;;;;;;;22.77;9.55;;;;;;;;;;4964400;28;20022;-60
2022/01/31 02:15:59;;;;;;;21.10;9.55;;;;;;;;;;4968484;28;20034;-59
2022/01/31 02:18:29;;;;;;;17.02;8.25;;;;;;;;;;4983216;28;20096;-60
2022/01/31 02:20:57;;;;;;;19.35;8.10;;;;;;;;;;4977205;28;20042;-62
2022/01/31 02:23:26;;;;;;;22.40;9.07;;;;;;;;;;4970136;28;20051;-60
2022/01/31 02:26:03;;;;;;;16.00;7.82;;;;;;;;;;4982011;28;20030;-60
2022/01/31 02:28:35;;;;;;;19.92;6.93;;;;;;;;;;4978642;28;20030;-61
2022/01/31 02:31:03;;;;;;;17.50;7.78;;;;;;;;;;4977254;28;20109;-62
2022/01/31 02:33:29;;;;;;;14.27;7.00;;;;;;;;;;4976196;28;20398;-61
2022/01/31 02:35:55;;;;;;;22.40;7.78;;;;;;;;;;4978335;28;20078;-62
2022/01/31 02:38:29;;;;;;;13.60;6.88;;;;;;;;;;4994238;28;20038;-61
2022/01/31 02:40:54;;;;;;;17.00;7.57;;;;;;;;;;4978901;28;20026;-61
2022/01/31 02:43:20;;;;;;;14.65;6.90;;;;;;;;;;4979859;28;20132;-62
2022/01/31 02:45:45;;;;;;;15.20;6.40;;;;;;;;;;4973616;28;20034;-61
2022/01/31 02:48:15;;;;;;;17.23;7.57;;;;;;;;;;4976497;28;20104;-61
2022/01/31 02:50:43;;;;;;;19.77;8.30;;;;;;;;;;4977733;28;20034;-61
2022/01/31 02:55:40;;;;;;;17.67;8.05;;;;;;;;;;4982016;28;20085;-61
2022/01/31 02:58:06;;;;;;;18.90;7.90;;;;;;;;;;4984241;28;20092;-62
2022/01/31 03:00:31;;;;;;;22.08;9.00;;;;;;;;;;4995516;28;20050;-61
2022/01/31 03:03:02;;;;;;;23.95;9.02;;;;;;;;;;4979509;28;20050;-61
2022/01/31 03:05:30;;;;;;;20.30;9.00;;;;;;;;;;4977568;28;20124;-62
2022/01/31 03:08:02;;;;;;;30.02;8.95;;;;;;;;;;4966604;28;20133;-62
2022/01/31 03:10:28;;;;;;;23.90;8.80;;;;;;;;;;4972082;28;20747;-61
2022/01/31 03:12:56;;;;;;;23.17;8.82;;;;;;;;;;4985592;28;20042;-62
2022/01/31 03:15:21;;;;;;;19.33;8.40;;;;;;;;;;4970862;28;20057;-61
2022/01/31 03:17:49;;;;;;;16.38;7.38;;;;;;;;;;4986664;28;20496;-63
2022/01/31 03:20:15;;;;;;;24.85;6.95;;;;;;;;;;4981148;28;20128;-62
2022/01/31 03:22:45;;;;;;;13.70;5.88;;;;;;;;;;4982723;28;20038;-61
2022/01/31 03:25:13;;;;;;;14.43;5.38;;;;;;;;;;4981615;28;20030;-62
2022/01/31 03:27:39;;;;;;;17.08;6.13;;;;;;;;;;4973213;28;20053;-62
2022/01/31 03:30:06;;;;;;;14.75;6.45;;;;;;;;;;4982356;28;20204;-61
2022/01/31 03:32:34;;;;;;;9.55;5.50;;;;;;;;;;4971880;28;20153;-60
2022/01/31 03:35:03;;;;;;;10.43;4.85;;;;;;;;;;4983564;28;20184;-61
2022/01/31 03:37:30;;;;;;;15.35;5.70;;;;;;;;;;4987586;28;20470;-61
2022/01/31 03:39:55;;;;;;;11.40;4.90;;;;;;;;;;4985883;28;20044;-62
2022/01/31 03:42:23;;;;;;;14.75;4.13;;;;;;;;;;4988744;28;20505;-62
2022/01/31 03:44:51;;;;;;;9.13;2.83;;;;;;;;;;4979888;28;20151;-61
2022/01/31 03:47:17;;;;;;;15.45;2.72;;;;;;;;;;4965993;28;20578;-62
2022/01/31 03:49:45;;;;;;;18.55;2.88;;;;;;;;;;4983100;28;20437;-62
2022/01/31 03:52:13;;;;;;;28.90;3.25;;;;;;;;;;4996931;28;20030;-61
2022/01/31 03:54:39;;;;;;;13.07;2.70;;;;;;;;;;4980227;28;20033;-63
2022/01/31 03:57:06;;;;;;;29.17;3.67;;;;;;;;;;4995256;28;20053;-61
2022/01/31 03:59:32;;;;;;;22.83;3.90;;;;;;;;;;4983634;28;20268;-61
2022/01/31 04:01:58;;;;;;;22.02;3.83;;;;;;;;;;4996933;28;20444;-62
2022/01/31 04:04:25;;;;;;;16.92;2.15;;;;;;;;;;4982769;28;20042;-63
2022/01/31 04:06:55;;;;;;;10.75;2.15;;;;;;;;;;4973093;28;20062;-64
2022/01/31 04:09:21;;;;;;;16.45;2.08;;;;;;;;;;4985241;28;20618;-62
2022/01/31 04:11:49;;;;;;;16.35;1.95;;;;;;;;;;4979532;28;20034;-63
2022/01/31 04:14:17;;;;;;;33.53;3.90;;;;;;;;;;4986515;28;20041;-62
2022/01/31 04:16:45;;;;;;;16.75;2.58;;;;;;;;;;4994383;28;20046;-62
2022/01/31 04:19:12;;;;;;;15.38;2.65;;;;;;;;;;4978202;28;20046;-64
2022/01/31 04:21:40;;;;;;;24.52;2.15;;;;;;;;;;4981005;28;20045;-65
2022/01/31 04:24:06;;;;;;;19.38;2.78;;;;;;;;;;4950831;28;20921;-61
2022/01/31 04:26:33;;;;;;;16.00;1.63;;;;;;;;;;4985267;28;20413;-62
2022/01/31 04:29:06;;;;;;;10.63;1.33;;;;;;;;;;4991610;28;20025;-66
2022/01/31 04:31:39;;;;;;;14.88;1.90;;;;;;;;;;4992555;28;20117;-62
2022/01/31 04:34:04;;;;;;;14.50;1.73;;;;;;;;;;4978284;28;20036;-63
2022/01/31 04:36:35;;;;;;;17.05;1.88;;;;;;;;;;4979517;28;20033;-63
2022/01/31 04:39:03;;;;;;;12.65;2.03;;;;;;;;;;4978112;28;20037;-62
2022/01/31 04:41:28;;;;;;;12.82;1.45;;;;;;;;;;4980107;28;20034;-67
2022/01/31 04:44:01;;;;;;;15.68;1.88;;;;;;;;;;4984036;28;20038;-63
2022/01/31 04:46:30;;;;;;;22.63;2.42;;;;;;;;;;4983085;28;20029;-66
2022/01/31 04:48:59;;;;;;;18.80;2.67;;;;;;;;;;4981417;28;20228;-63
2022/01/31 04:51:28;;;;;;;10.55;1.40;;;;;;;;;;4978220;28;20040;-63
2022/01/31 04:53:59;;;;;;;12.70;1.88;;;;;;;;;;4979670;28;20037;-62
2022/01/31 04:56:24;;;;;;;8.18;1.85;;;;;;;;;;4995692;28;20520;-64
2022/01/31 04:58:50;;;;;;;15.85;1.88;;;;;;;;;;4980282;28;20100;-62
2022/01/31 05:01:15;;;;;;;19.55;2.20;;;;;;;;;;4995641;28;20425;-62
2022/01/31 05:03:41;;;;;;;17.35;2.40;;;;;;;;;;4977683;28;20385;-66
2022/01/31 05:06:12;;;;;;;12.32;1.70;;;;;;;;;;4983398;28;20034;-69
2022/01/31 05:08:39;;;;;;;17.75;1.98;;;;;;;;;;4971304;28;20383;-64
2022/01/31 05:11:11;;;;;;;17.02;2.30;;;;;;;;;;4964429;28;20038;-67
2022/01/31 05:13:39;;;;;;;14.77;1.90;;;;;;;;;;4969600;28;20065;-68
2022/01/31 05:16:04;;;;;;;10.02;1.23;;;;;;;;;;4963944;28;20617;-62
2022/01/31 05:18:35;;;;;;;4.00;1.27;;;;;;;;;;4977061;28;20109;-66
2022/01/31 05:21:06;;;;;;;4.20;0.63;;;;;;;;;;4978363;28;20253;-62
2022/01/31 05:23:32;;;;;;;5.07;0.63;;;;;;;;;;4980799;28;20034;-62
2022/01/31 05:25:59;;;;;;;9.35;1.38;;;;;;;;;;4993973;28;20033;-64
2022/01/31 05:28:25;;;;;;;6.97;1.05;;;;;;;;;;4970736;28;20125;-62
2022/01/31 05:30:50;;;;;;;17.13;1.42;;;;;;;;;;4980939;28;20041;-63
2022/01/31 05:33:15;;;;;;;11.20;1.13;;;;;;;;;;4982458;28;20044;-63
2022/01/31 05:35:45;;;;;;;19.90;1.52;;;;;;;;;;4993447;28;20026;-63
2022/01/31 05:38:11;;;;;;;17.58;2.05;;;;;;;;;;4987186;28;20348;-62
2022/01/31 05:40:41;;;;;;;10.25;1.10;;;;;;;;;;4987354;28;20034;-63
2022/01/31 05:43:11;;;;;;;6.90;1.65;;;;;;;;;;4994566;28;20038;-65
2022/01/31 05:45:37;;;;;;;10.32;1.02;;;;;;;;;;4968744;28;20688;-62
2022/01/31 05:48:07;;;;;;;32.53;2.03;;;;;;;;;;4979904;28;20045;-62
2022/01/31 05:50:37;;;;;;;17.42;2.30;;;;;;;;;;4978667;28;20598;-61
2022/01/31 05:53:05;;;;;;;25.95;2.13;;;;;;;;;;4986396;28;20062;-62
2022/01/31 05:55:33;;;;;;;8.77;1.48;;;;;;;;;;4985246;28;20034;-61
2022/01/31 05:58:01;;;;;;;14.07;1.83;;;;;;;;;;4992201;28;20119;-62
2022/01/31 06:00:30;;;;;;;11.35;1.00;;;;;;;;;;4980708;28;20253;-64
2022/01/31 06:02:59;;;;;;;10.68;1.33;;;;;;;;;;4993971;28;20492;-62
2022/01/31 06:05:27;;;;;;;13.85;1.10;;;;;;;;;;4977813;28;20056;-62
2022/01/31 06:07:55;;;;;;;4.03;0.95;;;;;;;;;;4980299;28;20076;-62
2022/01/31 06:10:23;;;;;;;6.65;1.25;;;;;;;;;;4981842;28;20851;-63
2022/01/31 06:12:48;;;;;;;5.88;1.02;;;;;;;;;;4962547;28;20038;-62
2022/01/31 06:15:15;;;;;;;12.27;1.50;;;;;;;;;;4993449;28;20121;-61
2022/01/31 06:17:40;;;;;;;4.28;0.93;;;;;;;;;;4968464;28;20045;-62
2022/01/31 06:20:44;;;;;;;4.20;1.08;;;;;;;;;;4979493;28;20065;-63
2022/01/31 06:23:12;;;;;;;12.70;0.95;;;;;;;;;;4976304;28;20038;-62
2022/01/31 06:25:37;;;;;;;20.48;1.38;;;;;;;;;;4977069;28;20039;-61
2022/01/31 06:31:22;;;;;;;22.77;1.77;;;;;;;;;;4982282;28;20038;-61
2022/01/31 06:33:48;;;;;;;7.60;1.27;;;;;;;;;;4984199;28;20141;-62
2022/01/31 06:36:16;;;;;;;6.60;1.52;;;;;;;;;;4981065;28;20066;-62
2022/01/31 06:38:41;;;;;;;8.95;1.80;;;;;;;;;;4986982;28;20045;-61
2022/01/31 06:41:07;;;;;;;18.33;1.50;;;;;;;;;;4980553;28;20026;-62
2022/01/31 06:43:36;;;;;;;19.17;1.35;;;;;;;;;;4996033;28;20118;-60
2022/01/31 06:46:03;;;;;;;14.38;1.23;;;;;;;;;;4982898;28;20034;-61
2022/01/31 06:48:32;;;;;;;8.43;1.17;;;;;;;;;;4984538;28;20133;-61
2022/01/31 06:51:02;;;;;;;12.20;1.27;;;;;;;;;;4970965;28;20038;-62
2022/01/31 06:53:28;;;;;;;14.50;1.58;;;;;;;;;;4985182;28;20086;-64
2022/01/31 06:55:54;;;;;;;13.73;1.88;;;;;;;;;;4970679;28;20386;-63
2022/01/31 06:58:25;;;;;;;15.43;1.30;;;;;;;;;;4982172;28;20049;-62
2022/01/31 07:00:50;;;;;;;17.05;1.33;;;;;;;;;;4995312;28;20097;-62
2022/01/31 07:03:21;;;;;;;5.80;0.98;;;;;;;;;;4983164;28;20029;-61
2022/01/31 07:05:49;;;;;;;4.78;0.68;;;;;;;;;;4984392;28;20066;-62
2022/01/31 07:08:16;;;;;;;5.60;0.88;;;;;;;;;;4981453;28;20509;-63
2022/01/31 07:10:52;;;;;;;21.02;1.45;;;;;;;;;;4978441;28;20042;-63
2022/01/31 07:13:37;;;;;;;12.05;1.27;;;;;;;;;;4979610;28;20061;-65
2022/01/31 07:16:03;;;;;;;6.55;1.05;;;;;;;;;;4983099;28;20058;-62
2022/01/31 07:18:33;;;;;;;9.18;1.45;;;;;;;;;;4962444;28;21511;-66
2022/01/31 07:21:01;;;;;;;10.48;1.20;;;;;;;;;;4981651;28;20896;-63
2022/01/31 07:23:29;;;;;;;6.25;0.70;;;;;;;;;;4984565;28;20088;-62
2022/01/31 07:25:59;;;;;;;12.05;1.48;;;;;;;;;;4983595;28;20046;-62
2022/01/31 07:28:27;;;;;;;11.43;1.90;;;;;;;;;;4971636;28;20022;-62
2022/01/31 07:30:52;;;;;;;16.00;1.02;;;;;;;;;;4988602;28;20038;-64
2022/01/31 07:33:18;;;;;;;13.73;1.40;;;;;;;;;;4995611;28;20116;-63
2022/01/31 07:35:48;;;;;;;8.55;1.17;;;;;;;;;;4995686;28;20208;-62
2022/01/31 07:38:16;;;;;;;10.82;1.35;;;;;;;;;;4995636;28;20025;-62
2022/01/31 07:40:43;;;;;;;9.75;1.30;;;;;;;;;;4986073;28;20037;-62
2022/01/31 07:46:46;;;;;;;7.55;0.82;;;;;;;;;;4981387;28;20040;-62
2022/01/31 07:49:11;;;;;;;4.88;0.65;;;;;;;;;;4979028;28;20054;-62
2022/01/31 07:51:40;;;;;;;7.03;1.10;;;;;;;;;;4986765;28;20089;-61
2022/01/31 07:54:06;;;;;;;9.70;1.25;;;;;;;;;;4995438;28;20038;-62
2022/01/31 07:56:32;;;;;;;1.10;0.45;;;;;;;;;;4980676;28;20693;-62
2022/01/31 07:59:02;;;;;;;4.22;0.82;;;;;;;;;;4970429;28;20038;-62
2022/01/31 08:01:28;;;;;;;9.80;0.90;;;;;;;;;;4984108;28;20089;-61
2022/01/31 08:03:53;;;;;;;5.40;0.60;;;;;;;;;;4966941;28;20467;-61
2022/01/31 08:06:21;;;;;;;12.85;0.73;;;;;;;;;;4981264;28;20454;-61
2022/01/31 08:08:50;;;;;;;7.88;0.90;;;;;;;;;;4982315;28;20030;-61
2022/01/31 08:11:18;;;;;;;13.27;1.45;;;;;;;;;;4979729;28;20042;-61
2022/01/31 08:13:46;;;;;;;6.35;0.73;;;;;;;;;;4981671;28;20038;-61
2022/01/31 08:16:13;;;;;;;9.38;1.50;;;;;;;;;;4981583;28;20052;-60
2022/01/31 08:18:43;;;;;;;7.55;0.80;;;;;;;;;;4977014;28;21437;-63
2022/01/31 08:21:09;;;;;;;15.85;1.23;;;;;;;;;;4960681;28;20571;-63
2022/01/31 08:23:40;;;;;;;5.13;1.10;;;;;;;;;;4980476;28;20030;-61
2022/01/31 08:26:10;;;;;;;4.50;0.70;;;;;;;;;;4978431;28;20437;-62
2022/01/31 08:28:40;;;;;;;4.65;1.33;;;;;;;;;;4982251;28;20135;-62
2022/01/31 08:31:18;;;;;;;2.50;0.77;;;;;;;;;;4949089;28;20045;-61
2022/01/31 08:34:04;;;;;;;17.55;0.93;;;;;;;;;;4979140;28;20080;-61
2022/01/31 08:36:34;;;;;;;9.38;1.33;;;;;;;;;;4973152;28;20118;-63
2022/01/31 08:39:25;;;;;;;4.95;0.57;;;;;;;;;;4978585;28;20147;-62
2022/01/31 08:41:53;;;;;;;11.23;1.10;;;;;;;;;;4980369;28;20047;-62
2022/01/31 08:44:23;;;;;;;4.75;0.90;;;;;;;;;;4977800;28;20038;-62
2022/01/31 08:46:51;;;;;;;7.75;0.90;;;;;;;;;;4984438;28;20191;-62
2022/01/31 08:49:19;;;;;;;7.88;0.80;;;;;;;;;;4978144;28;20050;-62
2022/01/31 08:51:47;;;;;;;10.73;1.10;;;;;;;;;;4968157;28;20130;-62
2022/01/31 08:54:13;;;;;;;10.40;0.70;;;;;;;;;;4979722;28;20026;-62
2022/01/31 08:56:44;;;;;;;15.18;1.02;;;;;;;;;;4980715;28;20141;-62
2022/01/31 08:59:18;;;;;;;7.00;1.05;;;;;;;;;;4980962;28;20056;-62
2022/01/31 09:01:52;;;;;;;5.88;0.90;;;;;;;;;;4981446;28;20664;-63
2022/01/31 09:05:04;;;;;;;9.27;1.20;;;;;;;;;;4964872;28;20053;-63
2022/01/31 09:07:10;;;;;;;6.88;1.10;;;;;;;;;;4974618;28;21877;-62
2022/01/31 09:09:37;;;;;;;17.35;1.77;;;;;;;;;;4992504;28;20047;-63
2022/01/31 09:12:08;;;;;;;10.93;1.20;;;;;;;;;;4976918;28;20117;-62
2022/01/31 09:14:33;;;;;;;9.45;1.25;;;;;;;;;;4976098;28;20034;-61
2022/01/31 09:17:02;;;;;;;11.80;1.58;;;;;;;;;;4981637;28;20045;-62
2022/01/31 09:19:30;;;;;;;12.93;1.15;;;;;;;;;;4992672;28;20112;-62
2022/01/31 09:21:59;;;;;;;8.07;1.50;;;;;;;;;;4983750;28;20045;-62
2022/01/31 09:24:25;;;;;;;7.30;1.23;;;;;;;;;;4980126;28;20042;-62
2022/01/31 09:26:53;;;;;;;6.10;0.55;;;;;;;;;;4996222;28;20457;-62
2022/01/31 09:29:18;;;;;;;9.70;0.55;;;;;;;;;;4978622;28;20038;-62
2022/01/31 09:31:46;;;;;;;6.65;0.98;;;;;;;;;;4986564;28;21900;-62
2022/01/31 09:34:12;;;;;;;9.80;0.77;;;;;;;;;;4982741;28;20034;-61
2022/01/31 09:36:43;;;;;;;9.93;0.82;;;;;;;;;;4977706;28;20550;-63
2022/01/31 09:39:10;;;;;;;6.18;0.93;;;;;;;;;;4979024;28;20842;-62
2022/01/31 09:41:40;;;;;;;4.18;0.80;;;;;;;;;;4993898;28;20038;-62
2022/01/31 09:49:34;;;;;;;4.30;0.85;;;;;;;;;;4919983;28;20066;-62
2022/01/31 09:52:00;;;;;;;11.50;1.85;;;;;;;;;;4950863;28;20050;-63
2022/01/31 09:54:28;;;;;;;5.97;0.95;;;;;;;;;;4977754;28;20022;-62
2022/01/31 09:56:58;;;;;;;9.35;1.50;;;;;;;;;;4979292;28;20030;-63
2022/01/31 09:59:29;;;;;;;6.05;0.88;;;;;;;;;;4980225;28;20397;-62
2022/01/31 10:01:58;;;;;;;10.88;1.27;;;;;;;;;;4969166;28;20057;-63
2022/01/31 10:04:31;;;;;;;11.20;1.13;;;;;;;;;;4985343;28;20049;-63
2022/01/31 10:07:02;;;;;;;5.22;0.95;;;;;;;;;;4996144;28;20041;-64
2022/01/31 10:09:34;;;;;;;6.45;0.63;;;;;;;;;;4981842;28;20031;-63
2022/01/31 10:12:20;;;;;;;8.98;0.82;;;;;;;;;;4973976;28;20038;-63
2022/01/31 10:17:37;;;;;;;8.80;1.80;;;;;;;;;;4998900;28;20043;-63
2022/01/31 10:20:17;;;;;;;2.78;1.20;;;;;;;;;;4981512;28;20032;-63
2022/01/31 10:22:46;;;;;;;8.43;1.52;;;;;;;;;;4982805;28;20038;-63
2022/01/31 10:25:17;;;;;;;8.38;1.00;;;;;;;;;;4988918;28;20029;-64
2022/01/31 10:27:48;;;;;;;9.23;1.45;;;;;;;;;;4983895;28;20045;-63
2022/01/31 10:30:15;;;;;;;10.52;1.38;;;;;;;;;;4995924;28;20025;-63
2022/01/31 10:32:45;;;;;;;11.27;1.23;;;;;;;;;;4985270;28;20728;-67
2022/01/31 10:35:15;;;;;;;15.65;2.40;;;;;;;;;;4984205;28;20030;-64
2022/01/31 10:37:41;;;;;;;6.40;1.02;;;;;;;;;;4985403;28;20034;-63
2022/01/31 10:45:51;;;;;;;9.40;1.42;;;;;;;;;;4979206;28;20040;-64
2022/01/31 10:53:50;;;;;;;5.03;1.40;;;;;;;;;;4978836;28;20421;-67
2022/01/31 10:56:19;;;;;;;10.80;1.23;;;;;;;;;;4980989;28;20031;-66
2022/01/31 10:59:20;;;;;;;8.50;1.75;;;;;;;;;;4967692;28;20431;-65
2022/01/31 11:01:49;;;;;;;17.95;1.95;;;;;;;;;;4897207;28;20035;-66
2022/01/31 11:04:17;;;;;;;4.78;0.93;;;;;;;;;;4977972;28;20064;-65
2022/01/31 11:06:44;;;;;;;8.15;0.98;;;;;;;;;;4963997;28;20101;-66
2022/01/31 11:09:11;;;;;;;8.95;1.40;;;;;;;;;;4966873;28;20042;-68
2022/01/31 11:11:41;;;;;;;8.35;1.02;;;;;;;;;;4981828;28;20440;-66
2022/01/31 11:17:19;;;;;;;7.63;1.42;;;;;;;;;;4978498;28;20963;-66
2022/01/31 11:19:48;;;;;;;17.80;1.60;;;;;;;;;;4996654;28;20044;-64
2022/01/31 11:22:17;;;;;;;6.45;1.35;;;;;;;;;;4979767;28;20030;-67
2022/01/31 11:24:49;;;;;;;6.53;1.45;;;;;;;;;;4969161;28;20474;-65
2022/01/31 11:27:17;;;;;;;7.30;1.40;;;;;;;;;;4981595;28;20038;-66
2022/01/31 11:29:45;;;;;;;16.50;1.77;;;;;;;;;;4980329;28;20050;-66
2022/01/31 11:32:11;;;;;;;10.93;1.90;;;;;;;;;;4980278;28;20494;-65
2022/01/31 11:34:40;;;;;;;14.73;2.40;;;;;;;;;;4981054;28;20034;-64
2022/01/31 11:37:11;;;;;;;9.85;1.38;;;;;;;;;;4980572;28;21248;-65
2022/01/31 11:39:43;;;;;;;11.23;1.45;;;;;;;;;;4981026;28;20034;-66
2022/01/31 11:42:09;;;;;;;23.98;2.15;;;;;;;;;;4981743;28;20030;-64
2022/01/31 11:44:35;;;;;;;11.57;1.83;;;;;;;;;;4981231;28;20109;-63
2022/01/31 11:47:03;;;;;;;12.52;1.83;;;;;;;;;;4981031;28;20113;-65
2022/01/31 11:49:54;;;;;;;17.95;2.53;;;;;;;;;;4980048;28;20577;-66
2022/01/31 11:52:25;;;;;;;21.90;2.75;;;;;;;;;;4980039;28;20057;-67
2022/01/31 11:54:54;;;;;;;22.52;2.17;;;;;;;;;;4979916;28;20950;-65
2022/01/31 11:57:23;;;;;;;17.90;2.20;;;;;;;;;;4987625;28;20035;-70
2022/01/31 11:59:58;;;;;;;16.83;2.45;;;;;;;;;;4980666;28;20054;-66
2022/01/31 12:02:31;;;;;;;12.20;2.40;;;;;;;;;;4995389;28;20101;-64
2022/01/31 12:05:01;;;;;;;16.92;1.75;;;;;;;;;;4989105;28;20030;-66
2022/01/31 12:07:38;;;;;;;20.05;2.42;;;;;;;;;;4981222;28;21012;-66
2022/01/31 12:10:06;;;;;;;12.80;1.88;;;;;;;;;;4984603;28;20030;-66
2022/01/31 12:12:44;;;;;;;14.07;1.60;;;;;;;;;;4969134;28;20069;-65
2022/01/31 12:23:52;;;;;;;12.25;2.08;;;;;;;;;;4983961;28;20038;-65
2022/01/31 12:26:46;;;;;;;17.40;1.80;;;;;;;;;;4992085;28;20038;-64
2022/01/31 12:29:12;;;;;;;17.13;2.25;;;;;;;;;;4973577;28;20053;-65
2022/01/31 12:31:43;;;;;;;21.42;2.25;;;;;;;;;;4995604;28;20887;-65
2022/01/31 12:34:21;;;;;;;10.80;2.00;;;;;;;;;;4980312;28;20656;-64
2022/01/31 12:36:53;;;;;;;12.60;1.85;;;;;;;;;;4992839;28;20488;-65
2022/01/31 12:39:28;;;;;;;16.40;1.58;;;;;;;;;;4977962;28;20166;-65
2022/01/31 12:42:14;;;;;;;18.17;2.03;;;;;;;;;;4980357;28;20123;-68
2022/01/31 12:44:42;;;;;;;13.20;1.58;;;;;;;;;;4976815;28;21433;-70
2022/01/31 12:47:07;;;;;;;10.73;1.88;;;;;;;;;;4978310;28;20077;-67
2022/01/31 12:49:43;;;;;;;24.60;2.55;;;;;;;;;;4979599;28;20798;-66
2022/01/31 12:52:11;;;;;;;9.27;1.40;;;;;;;;;;4978212;28;21627;-66
2022/01/31 12:54:42;;;;;;;13.05;1.92;;;;;;;;;;4983694;28;20034;-68
2022/01/31 12:57:10;;;;;;;9.90;2.28;;;;;;;;;;4980118;28;20033;-69
2022/01/31 12:59:39;;;;;;;8.13;1.88;;;;;;;;;;4975977;28;20050;-67
2022/01/31 13:02:09;;;;;;;15.48;1.65;;;;;;;;;;4976942;28;20062;-65
2022/01/31 13:04:37;;;;;;;18.50;1.75;;;;;;;;;;4986263;28;20053;-65
2022/01/31 13:07:04;;;;;;;11.57;2.08;;;;;;;;;;4978221;28;20037;-66
2022/01/31 13:09:34;;;;;;;12.90;2.00;;;;;;;;;;4978618;28;20038;-68
2022/01/31 13:12:06;;;;;;;16.33;2.03;;;;;;;;;;4968573;28;20734;-64
2022/01/31 13:14:33;;;;;;;16.23;1.98;;;;;;;;;;4982723;28;20385;-68
2022/01/31 13:19:32;;;;;;;7.80;1.30;;;;;;;;;;4979556;28;20117;-64
2022/01/31 13:22:01;;;;;;;19.83;2.38;;;;;;;;;;4979054;28;20240;-66
2022/01/31 13:24:43;;;;;;;13.82;2.33;;;;;;;;;;4993194;28;20077;-65
2022/01/31 13:27:11;;;;;;;16.77;2.80;;;;;;;;;;4978524;28;20076;-65
2022/01/31 13:29:39;;;;;;;15.10;2.08;;;;;;;;;;4968032;28;20029;-67
2022/01/31 13:32:24;;;;;;;16.67;2.40;;;;;;;;;;4976951;28;20034;-66
2022/01/31 13:34:55;;;;;;;;;;;;;;;;;;4980039;28;20081;-65
2022/01/31 13:37:28;;;;;;;17.58;2.45;;;;;;;;;;4977177;28;20456;-66
2022/01/31 13:39:56;;;;;;;20.48;3.88;;;;;;;;;;4982861;28;20034;-66
2022/01/31 13:42:27;;;;;;;12.60;2.17;;;;;;;;;;4979122;28;20042;-66
2022/01/31 13:44:55;;;;;;;19.13;2.08;;;;;;;;;;4965789;28;20085;-66
2022/01/31 13:47:52;;;;;;;18.48;2.78;;;;;;;;;;4982338;28;20034;-64
2022/01/31 13:50:22;;;;;;;16.52;1.83;;;;;;;;;;4976171;28;20077;-70
2022/01/31 13:52:57;;;;;;;16.88;2.40;;;;;;;;;;4979474;28;20126;-69
2022/01/31 13:55:26;;;;;;;14.18;1.58;;;;;;;;;;4979090;28;20481;-70
2022/01/31 13:57:52;;;;;;;12.90;2.17;;;;;;;;;;4977931;28;20098;-65
2022/01/31 14:00:23;;;;;;;14.10;2.20;;;;;;;;;;4982873;28;21141;-71
2022/01/31 14:03:08;;;;;;;20.45;1.92;;;;;;;;;;4983643;28;20026;-68
2022/01/31 14:05:37;;;;;;;21.27;2.55;;;;;;;;;;4979206;28;20851;-68
2022/01/31 14:08:09;;;;;;;10.65;1.80;;;;;;;;;;4978843;28;20038;-66
2022/01/31 14:10:44;;;;;;;28.35;1.95;;;;;;;;;;4965128;28;20070;-66
2022/01/31 14:13:15;;;;;;;9.93;1.77;;;;;;;;;;4991617;28;20031;-65
2022/01/31 14:15:46;;;;;;;11.35;1.90;;;;;;;;;;4977481;28;20501;-68
2022/01/31 14:18:16;;;;;;;16.55;3.17;;;;;;;;;;4980156;28;20104;-71
2022/01/31 14:20:47;;;;;;;4.63;0.70;;;;;;;;;;4978097;28;20041;-65
2022/01/31 14:23:15;;;;;;;8.70;0.90;;;;;;;;;;4976767;28;20121;-63
2022/01/31 14:25:44;;;;;;;9.63;1.65;;;;;;;;;;4973432;28;20056;-62
2022/01/31 14:28:10;;;;;;;6.05;1.30;;;;;;;;;;4978860;28;20038;-63
2022/01/31 14:30:49;;;;;;;13.70;1.35;;;;;;;;;;4978059;28;20034;-63
2022/01/31 14:33:21;;;;;;;10.02;1.13;;;;;;;;;;4979641;28;20030;-63
2022/01/31 14:36:02;;;;;;;12.07;2.05;;;;;;;;;;4979052;28;20049;-62
2022/01/31 14:38:36;;;;;;;9.68;1.20;;;;;;;;;;4978651;28;20168;-62
2022/01/31 14:41:34;;;;;;;14.15;1.77;;;;;;;;;;4959956;28;20052;-63
2022/01/31 14:49:40;;;;;;;12.80;2.95;;;;;;;;;;4983738;28;20047;-62
2022/01/31 14:52:09;;;;;;;12.05;2.75;;;;;;;;;;4979700;28;20104;-62
2022/01/31 14:54:41;;;;;;;15.85;3.00;;;;;;;;;;4978805;28;20031;-63
2022/01/31 14:57:09;;;;;;;15.90;3.70;;;;;;;;;;4988550;28;20192;-61
2022/01/31 14:59:36;;;;;;;17.48;4.22;;;;;;;;;;4981105;28;21052;-61
2022/01/31 15:02:06;;;;;;;24.85;4.07;;;;;;;;;;4984169;28;22116;-61
2022/01/31 15:04:32;;;;;;;5.53;3.10;;;;;;;;;;4980256;28;20030;-62
2022/01/31 15:07:02;;;;;;;11.73;3.65;;;;;;;;;;4984736;28;20616;-61
2022/01/31 15:09:33;;;;;;;20.95;4.35;;;;;;;;;;4981102;28;20374;-62
2022/01/31 15:12:01;;;;;;;16.42;4.45;;;;;;;;;;4996223;28;20030;-62
2022/01/31 15:14:29;;;;;;;15.70;4.15;;;;;;;;;;4986604;28;20478;-62
2022/01/31 15:16:57;;;;;;;17.48;4.00;;;;;;;;;;4968585;28;20935;-62
2022/01/31 15:19:25;;;;;;;21.17;4.40;;;;;;;;;;4982119;28;20049;-62
2022/01/31 15:21:52;;;;;;;16.15;3.70;;;;;;;;;;4996446;28;20061;-61
2022/01/31 15:24:20;;;;;;;11.50;3.00;;;;;;;;;;4983804;28;20595;-62
2022/01/31 15:26:54;;;;;;;10.48;2.95;;;;;;;;;;4987175;28;20209;-61
2022/01/31 15:29:19;;;;;;;5.65;2.70;;;;;;;;;;4979438;28;20033;-61
2022/01/31 15:31:47;;;;;;;8.80;3.20;;;;;;;;;;4995811;28;20026;-60
2022/01/31 15:34:13;;;;;;;10.57;3.55;;;;;;;;;;4970331;28;20041;-61
2022/01/31 15:36:38;;;;;;;10.18;4.07;;;;;;;;;;4980944;28;20401;-61